M I D A S
Marine Information and Data Acquisition System
Tripno 1524 of the Zeeleeuw from 2008-07-23 06:49:50 to 2008-07-23 13:39:48
Back to CruiseResearch ActivitiesStationsMapUnderway DataData graphs

EquipmentUnitsComment
TimeDGPSUTC
LatitudeDGPSDM.mWGS84
LongitudeDGPSDM.mWGS84
HeadingGyrodeg 
SOGDGPSknotsSpeed over ground
COGDGPSdegCourse over ground
DepthEcho soundermeters200 kHz
Missing or incorrect values are displayed as -999
Navigation data collected by the RV Zeeleeuw from 2008-07-23 06:45:42 to 2008-07-23 13:44:32
                                                                                    Next 1000 lines
Time Latitude Longitude Heading SOG COG Depth
2008-07-23 06:45:53 51°13.621 2°56.048 111 0.1 227 8.2
2008-07-23 06:45:58 51°13.621 2°56.048 109.4 0.3 266 8.2
2008-07-23 06:46:02 51°13.621 2°56.047 108 0.5 281 8.2
2008-07-23 06:46:07 51°13.621 2°56.045 106.9 0.8 281 8.2
2008-07-23 06:46:12 51°13.622 2°56.042 106.1 1.2 283 8.2
2008-07-23 06:46:18 51°13.622 2°56.038 105.9 1.7 285 8.2
2008-07-23 06:46:22 51°13.623 2°56.034 105.9 2.3 286 8.3
2008-07-23 06:46:27 51°13.624 2°56.028 106.6 2.7 288 7.9
2008-07-23 06:46:32 51°13.626 2°56.022 108 3.1 289 -999
2008-07-23 06:46:38 51°13.628 2°56.013 109.3 3.4 290 -999
2008-07-23 06:46:43 51°13.629 2°56.006 109.6 3.7 290 -999
2008-07-23 06:46:48 51°13.631 2°55.997 109.8 3.9 290 -999
2008-07-23 06:46:53 51°13.633 2°55.989 110.1 4.1 290 -999
2008-07-23 06:46:57 51°13.635 2°55.982 110.6 4.3 291 -999
2008-07-23 06:47:03 51°13.638 2°55.97 111.3 4.5 291 -999
2008-07-23 06:47:08 51°13.64 2°55.961 112 4.7 291 -999
2008-07-23 06:47:13 51°13.643 2°55.951 112.9 4.8 292 -999
2008-07-23 06:47:17 51°13.645 2°55.943 113.9 4.9 293 -999
2008-07-23 06:47:23 51°13.648 2°55.93 114.9 5.1 294 -999
2008-07-23 06:47:28 51°13.651 2°55.92 116 5.2 295 -999
2008-07-23 06:47:33 51°13.655 2°55.91 117.7 5.3 297 -999
2008-07-23 06:47:37 51°13.658 2°55.902 119.3 5.3 298 -999
2008-07-23 06:47:42 51°13.661 2°55.891 121 5.3 299 -999
2008-07-23 06:47:47 51°13.665 2°55.881 122.2 5.3 301 -999
2008-07-23 06:47:53 51°13.67 2°55.869 123 5.3 302 -999
2008-07-23 06:47:58 51°13.674 2°55.86 123.7 5 303 -999
2008-07-23 06:48:02 51°13.676 2°55.853 124.2 4.7 303 -999
2008-07-23 06:48:07 51°13.68 2°55.845 124.8 4.5 304 -999
2008-07-23 06:48:13 51°13.684 2°55.835 125 4.4 304 -999
2008-07-23 06:48:18 51°13.687 2°55.827 125 4.4 304 4.7
2008-07-23 06:48:22 51°13.69 2°55.821 124.7 4.4 303 5.1
2008-07-23 06:48:28 51°13.694 2°55.811 124.1 4.4 303 -999
2008-07-23 06:48:32 51°13.696 2°55.804 122.7 4.4 302 -999
2008-07-23 06:48:38 51°13.7 2°55.794 120.4 4.4 300 -999
2008-07-23 06:48:43 51°13.703 2°55.785 118.2 4.5 298 -999
2008-07-23 06:48:48 51°13.706 2°55.777 116.1 4.3 297 -999
2008-07-23 06:48:52 51°13.708 2°55.77 114.6 4.1 295 -999
2008-07-23 06:48:58 51°13.71 2°55.761 114.3 3.8 296 -999
2008-07-23 06:49:03 51°13.713 2°55.754 114.1 3.5 296 -999
2008-07-23 06:49:08 51°13.715 2°55.748 113.8 3.2 297 -999
2008-07-23 06:49:12 51°13.716 2°55.743 113.2 2.9 295 -999
2008-07-23 06:49:17 51°13.717 2°55.739 112.6 2.4 296 11.1
2008-07-23 06:49:22 51°13.718 2°55.735 111.4 1.9 296 11.1
2008-07-23 06:49:27 51°13.719 2°55.733 109.5 1.3 300 11
2008-07-23 06:49:32 51°13.72 2°55.732 106.6 0.6 321 11
2008-07-23 06:49:38 51°13.721 2°55.732 102.3 0.5 27 5.4
2008-07-23 06:49:42 51°13.721 2°55.734 96.9 0.9 56 10.9
2008-07-23 06:49:47 51°13.722 2°55.736 90.1 1.1 64 10.9
2008-07-23 06:49:52 51°13.723 2°55.737 82.7 1 50 10.8
2008-07-23 06:49:58 51°13.723 2°55.739 76.4 0.6 45 10.9
2008-07-23 06:50:02 51°13.724 2°55.738 72.2 0.3 347 10.9
2008-07-23 06:50:07 51°13.724 2°55.737 68.8 0.5 270 10.8
2008-07-23 06:50:13 51°13.723 2°55.734 65.5 1 254 10.9
2008-07-23 06:50:18 51°13.723 2°55.731 62.7 1.4 249 10.8
2008-07-23 06:50:22 51°13.722 2°55.728 60.1 1.8 246 11
2008-07-23 06:50:27 51°13.72 2°55.724 58 2.2 244 11
2008-07-23 06:50:33 51°13.719 2°55.719 55.9 2.1 243 -999
2008-07-23 06:50:38 51°13.718 2°55.715 53.6 1.9 242 -999
2008-07-23 06:50:43 51°13.717 2°55.712 51.6 1.6 243 -999
2008-07-23 06:50:48 51°13.716 2°55.71 49.9 1 247 -999
2008-07-23 06:50:52 51°13.716 2°55.71 46.4 0.4 302 -999
2008-07-23 06:50:58 51°13.718 2°55.71 42.6 0.7 19 -999
2008-07-23 06:51:02 51°13.719 2°55.711 36 1 8 -999
2008-07-23 06:51:08 51°13.721 2°55.712 30.2 1.2 18 -999
2008-07-23 06:51:12 51°13.723 2°55.712 24.6 1.6 10 -999
2008-07-23 06:51:17 51°13.725 2°55.713 19.2 1.9 10 -999
2008-07-23 06:51:23 51°13.729 2°55.713 13.5 2.2 3 -999
2008-07-23 06:51:28 51°13.732 2°55.713 8.9 2.4 -999 -999
2008-07-23 06:51:33 51°13.736 2°55.712 1.8 2.7 354 -999
2008-07-23 06:51:37 51°13.739 2°55.711 355.6 3 350 11.1
2008-07-23 06:51:43 51°13.745 2°55.709 350.7 3.4 344 -999
2008-07-23 06:51:47 51°13.749 2°55.707 345.9 4 341 10.9
2008-07-23 06:51:52 51°13.755 2°55.703 340.5 4.6 337 10.9
2008-07-23 06:51:58 51°13.763 2°55.697 337.1 5.1 336 10.9
2008-07-23 06:52:02 51°13.768 2°55.693 335 5.6 335 10.9
2008-07-23 06:52:08 51°13.777 2°55.685 334 5.9 332 -999
2008-07-23 06:52:12 51°13.783 2°55.681 333.7 6 334 10.6
2008-07-23 06:52:17 51°13.791 2°55.675 333.8 5.9 332 10.7
2008-07-23 06:52:22 51°13.798 2°55.67 333.8 5.7 333 10.5
2008-07-23 06:52:27 51°13.805 2°55.664 333.8 5.6 332 10.6
2008-07-23 06:52:32 51°13.811 2°55.658 333.6 5.6 333 10.6
2008-07-23 06:52:37 51°13.818 2°55.653 333.6 5.6 333 10.8
2008-07-23 06:52:42 51°13.825 2°55.647 333.5 5.6 334 10.8
2008-07-23 06:52:47 51°13.832 2°55.641 333.8 5.6 333 10.8
2008-07-23 06:52:52 51°13.839 2°55.635 333.8 5.7 334 10.8
2008-07-23 06:52:57 51°13.846 2°55.629 333.9 5.8 333 10.7
2008-07-23 06:53:02 51°13.853 2°55.623 333.8 5.8 334 10.8
2008-07-23 06:53:07 51°13.86 2°55.617 333.8 5.9 334 10.6
2008-07-23 06:53:12 51°13.867 2°55.612 333.8 5.9 334 10.5
2008-07-23 06:53:17 51°13.875 2°55.606 333.8 5.9 334 10.8
2008-07-23 06:53:22 51°13.882 2°55.6 333.6 6 333 10.6
2008-07-23 06:53:27 51°13.89 2°55.594 333.1 6 333 10.5
2008-07-23 06:53:32 51°13.898 2°55.589 332.9 6 333 10.7
2008-07-23 06:53:37 51°13.905 2°55.583 332.6 6.1 332 10.7
2008-07-23 06:53:42 51°13.913 2°55.577 332.4 6.2 332 11
2008-07-23 06:53:46 51°13.919 2°55.572 332.4 6.3 332 10.9
2008-07-23 06:53:51 51°13.927 2°55.565 332.4 6.5 332 11
2008-07-23 06:53:56 51°13.935 2°55.557 332.4 6.6 332 11
2008-07-23 06:54:02 51°13.945 2°55.549 332.8 6.8 332 11
2008-07-23 06:54:06 51°13.952 2°55.543 332.9 6.9 332 11
2008-07-23 06:54:11 51°13.96 2°55.536 332.9 7.1 333 11.1
2008-07-23 06:54:16 51°13.969 2°55.528 333.7 7.2 333 11.1
2008-07-23 06:54:21 51°13.978 2°55.521 334.3 7.3 333 11.1
2008-07-23 06:54:26 51°13.987 2°55.514 334.4 7.3 333 11.2
2008-07-23 06:54:31 51°13.996 2°55.506 333.6 7.2 332 11.2
2008-07-23 06:54:36 51°14.005 2°55.499 333 7.2 333 11.1
2008-07-23 06:54:41 51°14.014 2°55.492 333.1 7.2 333 11.1
2008-07-23 06:54:46 51°14.022 2°55.485 333.6 7.1 333 11.1
2008-07-23 06:54:51 51°14.031 2°55.478 333.7 7.2 333 11.2
2008-07-23 06:54:55 51°14.039 2°55.472 333.9 7.1 334 11.1
2008-07-23 06:55:00 51°14.047 2°55.465 334.7 7.1 334 11.1
2008-07-23 06:55:05 51°14.056 2°55.458 335.1 7 335 11.2
2008-07-23 06:55:10 51°14.065 2°55.452 335.1 7 334 11.1
2008-07-23 06:55:15 51°14.074 2°55.445 334.3 7 334 11.2
2008-07-23 06:55:20 51°14.082 2°55.438 333.8 7 333 11.1
2008-07-23 06:55:25 51°14.092 2°55.431 334 7.1 334 11.1
2008-07-23 06:55:30 51°14.1 2°55.424 334.2 7 333 10.8
2008-07-23 06:55:35 51°14.109 2°55.417 334.3 7 332 11.1
2008-07-23 06:55:40 51°14.118 2°55.41 334.3 7.1 333 11.1
2008-07-23 06:55:45 51°14.127 2°55.403 333.9 7.1 332 11.1
2008-07-23 06:55:50 51°14.136 2°55.395 333.8 7.3 332 11.1
2008-07-23 06:55:55 51°14.145 2°55.387 333.5 7.5 332 11.1
2008-07-23 06:56:00 51°14.154 2°55.379 333 7.7 331 11.1
2008-07-23 06:56:05 51°14.164 2°55.37 332.4 7.9 330 11.2
2008-07-23 06:56:10 51°14.173 2°55.361 331.6 8.1 330 11.3
2008-07-23 06:56:14 51°14.181 2°55.353 330.1 8.2 328 11.1
2008-07-23 06:56:19 51°14.19 2°55.343 328.7 8.3 327 11.1
2008-07-23 06:56:24 51°14.2 2°55.333 327.6 8.4 326 11.2
2008-07-23 06:56:29 51°14.21 2°55.322 327 8.5 325 11.2
2008-07-23 06:56:34 51°14.219 2°55.311 326.3 8.6 324 10.9
2008-07-23 06:56:39 51°14.229 2°55.299 324.9 8.7 322 11.1
2008-07-23 06:56:44 51°14.239 2°55.286 323.1 9 321 11
2008-07-23 06:56:49 51°14.248 2°55.272 321.3 9.2 318 10.9
2008-07-23 06:56:54 51°14.258 2°55.258 318.7 9.4 316 11.1
2008-07-23 06:56:58 51°14.265 2°55.246 316.1 9.6 314 10.6
2008-07-23 06:57:03 51°14.274 2°55.23 314.7 9.9 313 10.6
2008-07-23 06:57:09 51°14.286 2°55.209 313 10.2 312 10.6
2008-07-23 06:57:13 51°14.293 2°55.196 312.4 10.5 312 10.6
2008-07-23 06:57:18 51°14.303 2°55.178 312.1 10.7 311 10.6
2008-07-23 06:57:23 51°14.313 2°55.16 312.2 11 312 10.7
2008-07-23 06:57:29 51°14.325 2°55.137 311.7 11.2 310 10.7
2008-07-23 06:57:34 51°14.336 2°55.118 311.3 11.3 311 10.8
2008-07-23 06:57:38 51°14.344 2°55.103 311.5 11.4 311 11.1
2008-07-23 06:57:43 51°14.354 2°55.083 311.6 11.6 310 11.3
2008-07-23 06:57:48 51°14.364 2°55.063 310.8 11.6 309 10.9
2008-07-23 06:57:53 51°14.374 2°55.043 310.5 11.7 309 10.9
2008-07-23 06:57:58 51°14.384 2°55.022 309.4 11.8 307 10.6
2008-07-23 06:58:03 51°14.394 2°55 307.9 11.9 304 10.7
2008-07-23 06:58:08 51°14.403 2°54.978 306.2 12 304 10.6
2008-07-23 06:58:14 51°14.414 2°54.952 306.1 12 303 10.6
2008-07-23 06:58:18 51°14.421 2°54.934 306.4 12.1 303 10.8
2008-07-23 06:58:23 51°14.43 2°54.911 305.8 12.2 301 10.7
2008-07-23 06:58:29 51°14.44 2°54.882 304 12.3 300 10.9
2008-07-23 06:58:34 51°14.448 2°54.858 302.3 12.3 298 11
2008-07-23 06:58:38 51°14.454 2°54.839 301.2 12.3 298 11
2008-07-23 06:58:43 51°14.462 2°54.815 300.4 12.4 297 11.2
2008-07-23 06:58:48 51°14.47 2°54.79 300.4 12.5 297 11
2008-07-23 06:58:53 51°14.477 2°54.765 299.8 12.5 295 11.3
2008-07-23 06:58:58 51°14.484 2°54.74 297.5 12.6 293 11
2008-07-23 06:59:03 51°14.491 2°54.714 296 12.6 293 10.9
2008-07-23 06:59:09 51°14.499 2°54.684 295.8 12.6 293 10.9
2008-07-23 06:59:14 51°14.506 2°54.658 296.3 12.6 294 10.9
2008-07-23 06:59:18 51°14.513 2°54.638 297.3 12.6 295 11.1
2008-07-23 06:59:23 51°14.52 2°54.613 298.4 12.6 296 11.1
2008-07-23 06:59:29 51°14.53 2°54.584 300 12.6 298 10.8
2008-07-23 06:59:33 51°14.537 2°54.564 300.9 12.6 298 10.8
2008-07-23 06:59:38 51°14.546 2°54.54 302.2 12.6 300 10.6
2008-07-23 06:59:43 51°14.554 2°54.516 302.4 12.7 299 10.8
2008-07-23 06:59:48 51°14.563 2°54.492 302.9 12.6 301 11
2008-07-23 06:59:54 51°14.574 2°54.463 303.3 12.6 300 11
2008-07-23 06:59:58 51°14.581 2°54.444 303.5 12.6 301 10.8
2008-07-23 07:00:03 51°14.589 2°54.42 302.8 12.6 299 10.9
2008-07-23 07:00:08 51°14.598 2°54.395 301.7 12.6 299 11.2
2008-07-23 07:00:14 51°14.608 2°54.366 301.1 12.6 298 10.8
2008-07-23 07:00:18 51°14.615 2°54.346 300.7 12.6 298 10.7
2008-07-23 07:00:23 51°14.623 2°54.321 300.2 12.7 297 11
2008-07-23 07:00:29 51°14.632 2°54.291 298.7 12.6 296 10.8
2008-07-23 07:00:34 51°14.639 2°54.266 297.7 12.7 295 10.9
2008-07-23 07:00:38 51°14.645 2°54.245 297 12.7 295 10.8
2008-07-23 07:00:43 51°14.652 2°54.22 296.9 12.6 295 11
2008-07-23 07:00:49 51°14.662 2°54.189 296.8 12.6 295 11.3
2008-07-23 07:00:53 51°14.668 2°54.17 297.6 12.7 297 10.9
2008-07-23 07:00:58 51°14.676 2°54.145 298.3 12.6 297 11
2008-07-23 07:01:03 51°14.684 2°54.12 298.9 12.7 297 11
2008-07-23 07:01:08 51°14.692 2°54.095 299.2 12.7 297 11.2
2008-07-23 07:01:13 51°14.7 2°54.07 299.2 12.7 298 10.9
2008-07-23 07:01:18 51°14.709 2°54.045 299.5 12.6 298 10.6
2008-07-23 07:01:23 51°14.717 2°54.021 299.6 12.6 298 10.9
2008-07-23 07:01:28 51°14.725 2°53.996 299.7 12.6 298 10.5
2008-07-23 07:01:33 51°14.733 2°53.972 300.2 12.5 299 10.6
2008-07-23 07:01:38 51°14.742 2°53.948 300.5 12.4 298 10.3
2008-07-23 07:01:43 51°14.75 2°53.924 300.4 12.4 298 10.2
2008-07-23 07:01:48 51°14.758 2°53.899 300 12.4 298 10.3
2008-07-23 07:01:53 51°14.766 2°53.875 299.3 12.4 297 10.2
2008-07-23 07:01:58 51°14.773 2°53.85 298.4 12.3 296 10.1
2008-07-23 07:02:03 51°14.781 2°53.826 297.6 12.3 296 10.1
2008-07-23 07:02:08 51°14.788 2°53.801 296.9 12.3 296 9.8
2008-07-23 07:02:13 51°14.796 2°53.777 297.1 12.3 297 9.8
2008-07-23 07:02:18 51°14.804 2°53.753 297.8 12.3 298 9.9
2008-07-23 07:02:23 51°14.812 2°53.729 298.7 12.4 298 9.9
2008-07-23 07:02:28 51°14.82 2°53.705 298.9 12.4 298 10.1
2008-07-23 07:02:34 51°14.829 2°53.676 299 12.3 298 9.9
2008-07-23 07:02:38 51°14.836 2°53.657 299 12.3 298 9.9
2008-07-23 07:02:43 51°14.844 2°53.633 299.5 12.2 298 10
2008-07-23 07:02:48 51°14.851 2°53.608 297.4 12.2 292 9.8
2008-07-23 07:02:53 51°14.857 2°53.583 293.9 12.2 292 9.9
2008-07-23 07:02:58 51°14.863 2°53.557 292.1 12.2 289 9.9
2008-07-23 07:03:04 51°14.869 2°53.527 290.2 12.2 288 9.9
2008-07-23 07:03:09 51°14.874 2°53.501 288.9 12.2 288 9.9
2008-07-23 07:03:14 51°14.879 2°53.475 287.5 12.2 286 10.1
2008-07-23 07:03:19 51°14.883 2°53.448 286.6 12.3 286 10.1
2008-07-23 07:03:24 51°14.888 2°53.422 286.2 12.4 285 10.2
2008-07-23 07:03:28 51°14.891 2°53.401 285.6 12.3 284 10.2
2008-07-23 07:03:33 51°14.895 2°53.374 285.3 12.4 284 10.2
2008-07-23 07:03:39 51°14.9 2°53.342 285.3 12.4 284 10.5
2008-07-23 07:03:43 51°14.903 2°53.321 285.3 12.4 284 10.2
2008-07-23 07:03:47 51°14.907 2°53.3 285.7 12.4 284 10.2
2008-07-23 07:03:54 51°14.913 2°53.262 285.8 12.5 284 10.3
2008-07-23 07:03:59 51°14.917 2°53.235 285.6 12.5 284 10.4
2008-07-23 07:04:03 51°14.92 2°53.214 285.7 12.4 284 10.3
2008-07-23 07:04:08 51°14.924 2°53.187 286 12.5 284 10.3
2008-07-23 07:04:13 51°14.929 2°53.16 286.1 12.5 284 10.4
2008-07-23 07:04:19 51°14.934 2°53.128 286.2 12.5 284 10.3
2008-07-23 07:04:23 51°14.937 2°53.106 286.1 12.5 284 10.3
2008-07-23 07:04:27 51°14.94 2°53.085 285 12.6 283 10.3
2008-07-23 07:04:33 51°14.945 2°53.052 284.4 12.6 283 10.3
2008-07-23 07:04:39 51°14.949 2°53.02 284 12.6 282 10.4
2008-07-23 07:04:43 51°14.952 2°52.998 283 12.6 281 10.4
2008-07-23 07:04:47 51°14.955 2°52.976 283.4 12.6 283 10.3
2008-07-23 07:04:54 51°14.96 2°52.938 284.1 12.5 282 10.4
2008-07-23 07:04:59 51°14.964 2°52.911 284.6 12.5 283 10.4
2008-07-23 07:05:03 51°14.967 2°52.89 285.3 12.5 284 10.5
2008-07-23 07:05:08 51°14.972 2°52.863 285.8 12.5 284 10.5
2008-07-23 07:05:13 51°14.976 2°52.836 285.9 12.5 284 10.5
2008-07-23 07:05:19 51°14.981 2°52.804 285.9 12.5 284 10.5
2008-07-23 07:05:23 51°14.984 2°52.782 285.8 12.5 284 10.5
2008-07-23 07:05:28 51°14.988 2°52.755 285.6 12.6 284 10.4
2008-07-23 07:05:33 51°14.993 2°52.728 285.7 12.6 284 10.5
2008-07-23 07:05:38 51°14.997 2°52.701 285.7 12.6 284 10.5
2008-07-23 07:05:43 51°15.001 2°52.674 285.7 12.6 284 10.5
2008-07-23 07:05:49 51°15.005 2°52.641 285.4 12.6 283 10.4
2008-07-23 07:05:53 51°15.008 2°52.62 284.5 12.6 282 10.4
2008-07-23 07:05:59 51°15.013 2°52.587 283.7 12.6 282 10.4
2008-07-23 07:06:03 51°15.015 2°52.565 283 12.6 281 10.3
2008-07-23 07:06:08 51°15.018 2°52.538 282.7 12.6 280 10.4
2008-07-23 07:06:13 51°15.022 2°52.511 282.3 12.6 280 10.3
2008-07-23 07:06:18 51°15.024 2°52.483 281.2 12.6 279 10.3
2008-07-23 07:06:23 51°15.027 2°52.455 280.7 12.6 279 10.4
2008-07-23 07:06:29 51°15.029 2°52.422 279.3 12.6 277 10.4
2008-07-23 07:06:34 51°15.032 2°52.395 279.2 12.6 279 10.4
2008-07-23 07:06:39 51°15.034 2°52.367 279.3 12.6 277 10.4
2008-07-23 07:06:43 51°15.036 2°52.345 279 12.6 278 10.3
2008-07-23 07:06:48 51°15.038 2°52.317 278.9 12.6 277 10.5
2008-07-23 07:06:53 51°15.04 2°52.29 278.6 12.6 277 10.5
2008-07-23 07:06:59 51°15.043 2°52.256 278.4 12.6 277 10.5
2008-07-23 07:07:03 51°15.045 2°52.234 278.8 12.7 277 10.5
2008-07-23 07:07:08 51°15.046 2°52.206 278.6 12.8 276 10.6
2008-07-23 07:07:14 51°15.049 2°52.173 278.7 12.7 277 10.6
2008-07-23 07:07:19 51°15.051 2°52.145 278.8 12.8 276 10.6
2008-07-23 07:07:23 51°15.053 2°52.122 278.6 12.8 277 10.7
2008-07-23 07:07:28 51°15.055 2°52.094 278.7 12.7 277 10.7
2008-07-23 07:07:33 51°15.058 2°52.067 279.1 12.7 278 10.8
2008-07-23 07:07:39 51°15.06 2°52.033 279.3 12.7 277 10.8
2008-07-23 07:07:43 51°15.063 2°52.011 279.8 12.7 280 10.9
2008-07-23 07:07:49 51°15.065 2°51.977 279.3 12.8 277 10.9
2008-07-23 07:07:53 51°15.067 2°51.955 279.9 12.8 279 10.9
2008-07-23 07:07:59 51°15.07 2°51.921 279.1 12.9 277 11.1
2008-07-23 07:08:03 51°15.073 2°51.899 280.8 12.8 281 11.1
2008-07-23 07:08:07 51°15.074 2°51.876 281.2 12.8 279 11.1
2008-07-23 07:08:14 51°15.08 2°51.838 281.9 12.8 282 11.4
2008-07-23 07:08:19 51°15.082 2°51.81 282.2 12.9 279 12.3
2008-07-23 07:08:23 51°15.085 2°51.788 282.4 12.8 281 11.4
2008-07-23 07:08:29 51°15.089 2°51.754 282.2 12.8 279 11.4
2008-07-23 07:08:33 51°15.091 2°51.732 281.2 12.8 280 11.4
2008-07-23 07:08:39 51°15.095 2°51.698 280.9 12.7 279 11.6
2008-07-23 07:08:43 51°15.096 2°51.676 280.4 12.8 278 11.6
2008-07-23 07:08:47 51°15.099 2°51.654 279.9 12.8 279 11.7
2008-07-23 07:08:53 51°15.102 2°51.62 279.7 12.8 278 11.7
2008-07-23 07:08:59 51°15.105 2°51.587 279.5 12.8 279 11.8
2008-07-23 07:09:03 51°15.108 2°51.565 279.9 12.7 280 11.7
2008-07-23 07:09:08 51°15.113 2°51.538 283.9 12.7 286 11.7
2008-07-23 07:09:14 51°15.118 2°51.505 285.6 12.8 284 11.8
2008-07-23 07:09:19 51°15.124 2°51.479 288.5 12.7 289 11.9
2008-07-23 07:09:23 51°15.128 2°51.458 290.2 12.7 288 11.8
2008-07-23 07:09:27 51°15.134 2°51.437 291.5 12.7 291 11.8
2008-07-23 07:09:33 51°15.142 2°51.406 293.4 12.6 294 11.8
2008-07-23 07:09:39 51°15.152 2°51.377 298.3 12.6 298 11.9
2008-07-23 07:09:43 51°15.159 2°51.357 299.7 12.6 299 11.9
2008-07-23 07:09:47 51°15.166 2°51.339 302.6 12.6 302 12
2008-07-23 07:09:53 51°15.177 2°51.31 303.4 12.6 302 12
2008-07-23 07:09:58 51°15.187 2°51.287 305.1 12.6 303 12
2008-07-23 07:10:03 51°15.197 2°51.264 305.9 12.6 304 12.1
2008-07-23 07:10:08 51°15.207 2°51.241 306.6 12.6 305 12
2008-07-23 07:10:13 51°15.218 2°51.22 309.3 12.5 311 12.1
2008-07-23 07:10:18 51°15.23 2°51.199 313 12.5 312 12.2
2008-07-23 07:10:23 51°15.242 2°51.179 315.8 12.5 314 12.2
2008-07-23 07:10:28 51°15.255 2°51.16 317.7 12.5 316 12.2
2008-07-23 07:10:34 51°15.27 2°51.138 319.2 12.5 317 12.3
2008-07-23 07:10:39 51°15.283 2°51.119 320.7 12.5 318 12.4
2008-07-23 07:10:43 51°15.294 2°51.105 321.6 12.4 320 12.3
2008-07-23 07:10:49 51°15.309 2°51.086 322.7 11.9 321 12.2
2008-07-23 07:10:53 51°15.319 2°51.075 325.6 11.1 325 12.4
2008-07-23 07:10:59 51°15.333 2°51.059 327.9 10.4 325 12.4
2008-07-23 07:11:03 51°15.343 2°51.05 329.9 9.8 328 12.5
2008-07-23 07:11:08 51°15.354 2°51.039 332.3 9.3 329 12.5
2008-07-23 07:11:14 51°15.367 2°51.028 334 8.9 331 12.5
2008-07-23 07:11:19 51°15.377 2°51.018 334.7 8.6 331 12.6
2008-07-23 07:11:23 51°15.385 2°51.011 335.4 8.3 331 12.6
2008-07-23 07:11:28 51°15.395 2°51.003 336.3 8.1 332 12.7
2008-07-23 07:11:34 51°15.406 2°50.993 336.6 7.9 332 12.7
2008-07-23 07:11:39 51°15.416 2°50.985 336.7 7.7 332 12.6
2008-07-23 07:11:43 51°15.423 2°50.979 336.5 7.5 332 12.6
2008-07-23 07:11:48 51°15.432 2°50.971 335.9 7.4 331 12.6
2008-07-23 07:11:53 51°15.441 2°50.963 335.3 7.3 331 12.7
2008-07-23 07:11:59 51°15.451 2°50.954 334.9 7.2 330 12.7
2008-07-23 07:12:03 51°15.458 2°50.948 334.5 7 330 12.6
2008-07-23 07:12:08 51°15.466 2°50.94 334.1 6.9 329 12.5
2008-07-23 07:12:13 51°15.474 2°50.932 333.6 6.8 329 12.6
2008-07-23 07:12:19 51°15.484 2°50.922 333.4 6.9 329 12.7
2008-07-23 07:12:23 51°15.49 2°50.916 333.2 6.8 329 12.7
2008-07-23 07:12:28 51°15.498 2°50.909 333.3 6.7 328 12.7
2008-07-23 07:12:33 51°15.506 2°50.901 333.7 6.7 330 12.8
2008-07-23 07:12:38 51°15.514 2°50.894 333.7 6.6 330 12.8
2008-07-23 07:12:43 51°15.522 2°50.887 333.8 6.5 329 12.7
2008-07-23 07:12:49 51°15.531 2°50.878 333.8 6.5 329 12.8
2008-07-23 07:12:53 51°15.538 2°50.872 333.9 6.5 329 12.8
2008-07-23 07:12:59 51°15.547 2°50.863 333.6 6.5 329 12.8
2008-07-23 07:13:03 51°15.553 2°50.857 333 6.5 328 12.8
2008-07-23 07:13:08 51°15.56 2°50.849 332.5 6.5 328 12.8
2008-07-23 07:13:14 51°15.569 2°50.84 332.4 6.4 328 12.8
2008-07-23 07:13:19 51°15.577 2°50.833 332.4 6.4 328 12.8
2008-07-23 07:13:23 51°15.583 2°50.826 332.2 6.4 327 12.8
2008-07-23 07:13:28 51°15.59 2°50.819 331.6 6.4 327 12.8
2008-07-23 07:13:34 51°15.599 2°50.809 331.2 6.3 326 12.8
2008-07-23 07:13:39 51°15.606 2°50.802 331.1 6.3 327 12.9
2008-07-23 07:13:43 51°15.612 2°50.796 331.2 6.3 327 12.9
2008-07-23 07:13:48 51°15.62 2°50.788 331.3 6.3 326 12.7
2008-07-23 07:13:53 51°15.627 2°50.78 331.5 6.3 326 12.7
2008-07-23 07:13:59 51°15.636 2°50.771 331.6 6.3 326 12.8
2008-07-23 07:14:03 51°15.642 2°50.765 331.3 6.3 326 12.8
2008-07-23 07:14:08 51°15.649 2°50.757 331.2 6.3 327 12.7
2008-07-23 07:14:13 51°15.656 2°50.749 331.4 6.3 327 12.7
2008-07-23 07:14:19 51°15.665 2°50.74 331.6 6.3 327 12.7
2008-07-23 07:14:23 51°15.671 2°50.734 331.9 6.3 327 12.7
2008-07-23 07:14:28 51°15.678 2°50.727 332 6.3 327 12.8
2008-07-23 07:14:33 51°15.686 2°50.719 332 6.3 327 12.7
2008-07-23 07:14:38 51°15.693 2°50.712 332.1 6.3 327 12.8
2008-07-23 07:14:43 51°15.7 2°50.704 332 6.3 327 12.8
2008-07-23 07:14:49 51°15.709 2°50.695 332 6.3 327 12.8
2008-07-23 07:14:53 51°15.715 2°50.689 332 6.6 327 12.8
2008-07-23 07:14:59 51°15.725 2°50.678 331.8 7.1 327 12.8
2008-07-23 07:15:04 51°15.734 2°50.669 331.6 7.6 328 12.8
2008-07-23 07:15:08 51°15.742 2°50.661 331.1 8 327 12.8
2008-07-23 07:15:14 51°15.754 2°50.649 330.9 8.6 328 12.7
2008-07-23 07:15:19 51°15.765 2°50.638 330.7 9 327 12.7
2008-07-23 07:15:23 51°15.774 2°50.629 330.9 9.5 328 12.6
2008-07-23 07:15:28 51°15.786 2°50.617 331.5 10 328 12.8
2008-07-23 07:15:33 51°15.798 2°50.606 332.1 10.4 330 12.8
2008-07-23 07:15:39 51°15.814 2°50.59 332.3 11 329 12.8
2008-07-23 07:15:43 51°15.824 2°50.58 332.3 11.2 329 12.6
2008-07-23 07:15:47 51°15.835 2°50.569 332.2 11.5 329 12.6
2008-07-23 07:15:53 51°15.852 2°50.553 331.7 11.7 328 12.5
2008-07-23 07:15:59 51°15.869 2°50.537 332 11.7 329 12.3
2008-07-23 07:16:03 51°15.88 2°50.526 332.4 11.8 329 12.5
2008-07-23 07:16:08 51°15.894 2°50.513 332.5 12 329 12.4
2008-07-23 07:16:14 51°15.912 2°50.496 332.7 12 329 12.2
2008-07-23 07:16:19 51°15.926 2°50.482 332.5 12.1 329 11.9
2008-07-23 07:16:23 51°15.938 2°50.471 332.3 12.2 329 11.8
2008-07-23 07:16:28 51°15.952 2°50.457 332.1 12.2 329 11.3
2008-07-23 07:16:33 51°15.966 2°50.443 332.1 12.2 329 11
2008-07-23 07:16:39 51°15.984 2°50.426 332.2 12.2 329 10.7
2008-07-23 07:16:43 51°15.995 2°50.415 332.2 12.2 329 10.4
2008-07-23 07:16:49 51°16.012 2°50.399 332.1 12.2 328 10.1
2008-07-23 07:16:53 51°16.024 2°50.388 331.9 12.1 329 10
2008-07-23 07:16:59 51°16.041 2°50.371 331.6 12.1 329 9.8
2008-07-23 07:17:04 51°16.056 2°50.357 331.8 12.2 329 9.9
2008-07-23 07:17:08 51°16.068 2°50.346 332.2 12.2 329 9.6
2008-07-23 07:17:14 51°16.085 2°50.33 332.6 12.2 330 9.6
2008-07-23 07:17:19 51°16.1 2°50.316 332.6 12.2 329 9.6
2008-07-23 07:17:23 51°16.111 2°50.304 332.2 12.2 329 9.6
2008-07-23 07:17:28 51°16.126 2°50.29 331.5 12.3 328 9.8
2008-07-23 07:17:33 51°16.14 2°50.275 331.4 12.3 328 9.6
2008-07-23 07:17:39 51°16.157 2°50.258 331 12.3 327 9.6
2008-07-23 07:17:43 51°16.169 2°50.246 330.9 12.3 328 9.9
2008-07-23 07:17:49 51°16.186 2°50.229 331.1 12.4 328 9.8
2008-07-23 07:17:53 51°16.198 2°50.217 331.3 12.3 328 9.9
2008-07-23 07:17:59 51°16.215 2°50.2 331.3 12.3 328 10.1
2008-07-23 07:18:03 51°16.227 2°50.188 331.6 12.3 328 10.3
2008-07-23 07:18:08 51°16.242 2°50.174 331.2 12.3 328 10.3
2008-07-23 07:18:14 51°16.259 2°50.156 331 12.3 327 10.3
2008-07-23 07:18:19 51°16.273 2°50.142 330.7 12.3 328 10.5
2008-07-23 07:18:23 51°16.285 2°50.13 331.1 12.3 328 10.5
2008-07-23 07:18:28 51°16.299 2°50.116 331.4 12.4 328 10.6
2008-07-23 07:18:33 51°16.314 2°50.101 331.4 12.3 328 10.4
2008-07-23 07:18:39 51°16.332 2°50.084 331.5 12.3 328 10.4
2008-07-23 07:18:43 51°16.343 2°50.072 331 12.3 329 10.8
2008-07-23 07:18:49 51°16.361 2°50.055 331.6 12.4 329 10.7
2008-07-23 07:18:53 51°16.373 2°50.044 331.6 12.3 329 10.6
2008-07-23 07:18:59 51°16.39 2°50.028 332.2 12.3 329 10.7
2008-07-23 07:19:03 51°16.402 2°50.016 332.3 12.3 329 10.6
2008-07-23 07:19:08 51°16.416 2°50.003 332.1 12.3 329 10.8
2008-07-23 07:19:13 51°16.431 2°49.989 332.3 12.3 329 10.8
2008-07-23 07:19:19 51°16.449 2°49.971 331.5 12.3 328 10.8
2008-07-23 07:19:23 51°16.46 2°49.959 330.4 12.3 327 11
2008-07-23 07:19:28 51°16.474 2°49.944 329.4 12.3 327 10.9
2008-07-23 07:19:33 51°16.488 2°49.929 329.2 12.3 326 11
2008-07-23 07:19:39 51°16.505 2°49.911 329 12.3 326 11.4
2008-07-23 07:19:44 51°16.52 2°49.896 328.9 12.3 326 11.5
2008-07-23 07:19:49 51°16.534 2°49.88 328.5 12.3 326 11.7
2008-07-23 07:19:53 51°16.545 2°49.868 328.3 12.3 326 11.8
2008-07-23 07:19:59 51°16.562 2°49.85 328.1 12.3 326 12.1
2008-07-23 07:20:03 51°16.573 2°49.837 328.6 12.3 326 12.6
2008-07-23 07:20:08 51°16.588 2°49.822 328.7 12.3 327 12.8
2008-07-23 07:20:14 51°16.605 2°49.805 329.6 12.3 327 13.4
2008-07-23 07:20:19 51°16.619 2°49.79 329.4 12.2 327 13.5
2008-07-23 07:20:23 51°16.631 2°49.779 330.1 12.3 328 13.6
2008-07-23 07:20:28 51°16.645 2°49.763 330.1 12.4 326 13.8
2008-07-23 07:20:34 51°16.662 2°49.746 330.6 12.3 329 13.8
2008-07-23 07:20:39 51°16.677 2°49.732 331.3 12.3 328 13.8
2008-07-23 07:20:43 51°16.689 2°49.721 332.1 12.2 329 13.5
2008-07-23 07:20:49 51°16.706 2°49.704 332.8 12.3 329 13.3
2008-07-23 07:20:53 51°16.718 2°49.693 333.1 12.3 330 12.8
2008-07-23 07:20:59 51°16.736 2°49.676 333.3 12.3 329 11.9
2008-07-23 07:21:03 51°16.747 2°49.665 333.5 12.2 329 11.7
2008-07-23 07:21:08 51°16.761 2°49.65 332.4 12.2 327 11.2
2008-07-23 07:21:13 51°16.776 2°49.636 332 12.2 328 10.7
2008-07-23 07:21:19 51°16.793 2°49.618 331.5 12.2 327 11.6
2008-07-23 07:21:23 51°16.804 2°49.607 331.4 12.2 328 11.2
2008-07-23 07:21:28 51°16.819 2°49.592 330.9 12.2 327 10.3
2008-07-23 07:21:33 51°16.833 2°49.578 330.8 12.2 328 9.8
2008-07-23 07:21:39 51°16.85 2°49.56 330.5 12.1 327 9.5
2008-07-23 07:21:44 51°16.864 2°49.546 330.6 12.1 328 9.2
2008-07-23 07:21:49 51°16.878 2°49.531 330.4 12 327 8.7
2008-07-23 07:21:53 51°16.89 2°49.52 330.9 12.1 329 9.3
2008-07-23 07:21:59 51°16.907 2°49.503 331.4 12.2 327 9.4
2008-07-23 07:22:03 51°16.919 2°49.493 332.3 12.1 331 9.4
2008-07-23 07:22:08 51°16.933 2°49.478 332.5 12.2 328 9.1
2008-07-23 07:22:14 51°16.95 2°49.462 332.6 12.2 330 9.4
2008-07-23 07:22:19 51°16.965 2°49.448 332.8 12.1 329 9.5
2008-07-23 07:22:23 51°16.976 2°49.438 332.7 12.1 330 10
2008-07-23 07:22:29 51°16.994 2°49.421 332.9 12.2 329 10.4
2008-07-23 07:22:34 51°17.009 2°49.407 333.2 12.2 331 10.4
2008-07-23 07:22:39 51°17.023 2°49.393 333.6 12.3 329 10.5
2008-07-23 07:22:43 51°17.035 2°49.383 333.3 12.2 330 10.7
2008-07-23 07:22:48 51°17.05 2°49.368 333.2 12.3 329 10.8
2008-07-23 07:22:54 51°17.068 2°49.352 333 12.3 330 11
2008-07-23 07:22:59 51°17.082 2°49.339 333.5 12.3 330 11
2008-07-23 07:23:03 51°17.094 2°49.328 333.6 12.3 331 10.8
2008-07-23 07:23:08 51°17.109 2°49.314 333.9 12.3 331 10
2008-07-23 07:23:14 51°17.127 2°49.298 333.8 12.1 330 10.2
2008-07-23 07:23:19 51°17.141 2°49.285 333.8 12.3 330 10.8
2008-07-23 07:23:23 51°17.153 2°49.274 333.6 12.2 330 11
2008-07-23 07:23:28 51°17.168 2°49.261 333.9 12.3 331 11.1
2008-07-23 07:23:33 51°17.183 2°49.248 334.4 12.3 331 11.1
2008-07-23 07:23:39 51°17.201 2°49.232 334.4 12.4 330 11
2008-07-23 07:23:43 51°17.213 2°49.221 333.8 12.4 330 11.4
2008-07-23 07:23:49 51°17.23 2°49.205 333.6 12.3 330 11.4
2008-07-23 07:23:53 51°17.242 2°49.194 333.2 12.3 330 11.2
2008-07-23 07:23:59 51°17.26 2°49.178 333.7 12.3 332 11.4
2008-07-23 07:24:03 51°17.273 2°49.168 334.6 12.3 332 11.4
2008-07-23 07:24:08 51°17.288 2°49.156 335.4 12.2 333 11.4
2008-07-23 07:24:13 51°17.303 2°49.143 336 12.2 332 11.4
2008-07-23 07:24:18 51°17.318 2°49.131 336 12.3 333 11.4
2008-07-23 07:24:23 51°17.333 2°49.119 336.9 12.2 334 11.3
2008-07-23 07:24:29 51°17.352 2°49.104 337 12.2 333 11.4
2008-07-23 07:24:34 51°17.367 2°49.092 336.6 12.3 333 11.5
2008-07-23 07:24:39 51°17.382 2°49.08 336.9 12.3 334 11.6
2008-07-23 07:24:43 51°17.394 2°49.07 337.2 12.3 334 11.5
2008-07-23 07:24:48 51°17.409 2°49.058 337 12.2 334 11.5
2008-07-23 07:24:54 51°17.428 2°49.044 336.6 12.3 333 11.6
2008-07-23 07:24:59 51°17.443 2°49.032 336.7 12.3 334 11.7
2008-07-23 07:25:03 51°17.455 2°49.022 336.7 12.3 333 11.8
2008-07-23 07:25:08 51°17.47 2°49.009 336.2 12.3 333 11.6
2008-07-23 07:25:14 51°17.488 2°48.994 336.4 12.3 332 11.7
2008-07-23 07:25:19 51°17.504 2°48.982 335.5 12.3 333 11.6
2008-07-23 07:25:23 51°17.515 2°48.971 335.2 12.3 332 11.7
2008-07-23 07:25:28 51°17.531 2°48.958 335.2 12.4 332 11.7
2008-07-23 07:25:33 51°17.546 2°48.945 335 12.3 331 11.5
2008-07-23 07:25:39 51°17.563 2°48.93 334.6 12.3 332 11.5
2008-07-23 07:25:43 51°17.575 2°48.919 334.5 12.3 331 11.6
2008-07-23 07:25:47 51°17.587 2°48.909 334.5 12.3 331 11.6
2008-07-23 07:25:53 51°17.606 2°48.893 334.8 12.3 332 11.3
2008-07-23 07:25:59 51°17.624 2°48.878 335.2 12.3 332 11.4
2008-07-23 07:26:03 51°17.636 2°48.867 335.2 12.2 331 11.3
2008-07-23 07:26:08 51°17.65 2°48.854 334.9 12.3 331 11.5
2008-07-23 07:26:13 51°17.665 2°48.84 334.8 12.3 331 11.3
2008-07-23 07:26:18 51°17.68 2°48.827 334.5 12.3 331 11.1
2008-07-23 07:26:23 51°17.695 2°48.814 334 12.3 330 10.9
2008-07-23 07:26:28 51°17.71 2°48.799 333 12.4 329 10.7
2008-07-23 07:26:34 51°17.727 2°48.783 332.2 12.3 329 10.6
2008-07-23 07:26:39 51°17.742 2°48.769 333 12.3 329 10.3
2008-07-23 07:26:43 51°17.754 2°48.758 333 12.3 329 9.9
2008-07-23 07:26:49 51°17.772 2°48.741 332.7 12.3 329 9.9
2008-07-23 07:26:53 51°17.783 2°48.729 332.3 12.3 329 9.9
2008-07-23 07:26:59 51°17.801 2°48.712 331.9 12.3 328 10
2008-07-23 07:27:03 51°17.812 2°48.7 331.3 12.3 328 9.7
2008-07-23 07:27:09 51°17.829 2°48.683 330.8 12.3 327 9.8
2008-07-23 07:27:14 51°17.844 2°48.668 330.7 12.4 327 9.7
2008-07-23 07:27:19 51°17.858 2°48.653 330.4 12.2 327 9.6
2008-07-23 07:27:23 51°17.87 2°48.641 330.9 12.2 327 9.6
2008-07-23 07:27:28 51°17.884 2°48.626 330.9 12.3 327 9.8
2008-07-23 07:27:33 51°17.898 2°48.611 331.4 12.3 327 9.7
2008-07-23 07:27:39 51°17.916 2°48.594 331.5 12.4 328 9.5
2008-07-23 07:27:43 51°17.927 2°48.582 331.8 12.4 328 9.8
2008-07-23 07:27:49 51°17.945 2°48.565 331.9 12.4 328 9.6
2008-07-23 07:27:53 51°17.957 2°48.553 332.1 12.4 328 9.7
2008-07-23 07:27:59 51°17.974 2°48.536 331.7 12.4 328 9.8
2008-07-23 07:28:03 51°17.986 2°48.524 331.7 12.4 328 9.9
2008-07-23 07:28:08 51°18 2°48.51 331.8 12.4 328 9.9
2008-07-23 07:28:13 51°18.015 2°48.495 331.9 12.5 328 9.9
2008-07-23 07:28:18 51°18.03 2°48.48 331.9 12.5 329 10
2008-07-23 07:28:23 51°18.045 2°48.466 332.7 12.5 329 10
2008-07-23 07:28:28 51°18.06 2°48.452 333 12.5 329 10
2008-07-23 07:28:33 51°18.074 2°48.438 332.6 12.5 328 10.1
2008-07-23 07:28:39 51°18.092 2°48.42 332.2 12.4 328 9.9
2008-07-23 07:28:44 51°18.107 2°48.405 332.1 12.4 328 9.6
2008-07-23 07:28:49 51°18.121 2°48.391 331.8 12.5 328 9.4
2008-07-23 07:28:53 51°18.133 2°48.379 331.8 12.4 328 9.3
2008-07-23 07:28:59 51°18.15 2°48.361 331.8 12.4 328 9.6
2008-07-23 07:29:03 51°18.162 2°48.349 331.8 12.5 328 10
2008-07-23 07:29:08 51°18.177 2°48.335 331.8 12.5 328 9.9
2008-07-23 07:29:14 51°18.194 2°48.317 332.1 12.5 328 9.8
2008-07-23 07:29:19 51°18.209 2°48.303 332.3 12.5 328 9.7
2008-07-23 07:29:23 51°18.221 2°48.291 332.3 12.4 328 9.9
2008-07-23 07:29:28 51°18.235 2°48.276 332.3 12.5 329 9.7
2008-07-23 07:29:34 51°18.253 2°48.259 332.6 12.5 329 9.8
2008-07-23 07:29:39 51°18.268 2°48.245 332.9 12.5 328 10.2
2008-07-23 07:29:43 51°18.28 2°48.233 332.6 12.5 329 10.2
2008-07-23 07:29:48 51°18.295 2°48.218 332.5 12.6 328 10.5
2008-07-23 07:29:53 51°18.309 2°48.204 332.3 12.5 328 10.6
2008-07-23 07:29:59 51°18.327 2°48.186 332.5 12.6 328 11
2008-07-23 07:30:03 51°18.339 2°48.174 332.3 12.6 328 11.1
2008-07-23 07:30:08 51°18.354 2°48.159 332.3 12.6 328 11.4
2008-07-23 07:30:13 51°18.369 2°48.145 332.2 12.6 328 11.7
2008-07-23 07:30:19 51°18.387 2°48.128 332.6 12.6 329 11.8
2008-07-23 07:30:23 51°18.398 2°48.116 333 12.5 329 12
2008-07-23 07:30:28 51°18.414 2°48.102 333.7 12.5 330 12.2
2008-07-23 07:30:33 51°18.428 2°48.088 333.8 12.5 329 12.4
2008-07-23 07:30:38 51°18.443 2°48.074 333.8 12.5 330 12.6
2008-07-23 07:30:43 51°18.458 2°48.06 334 12.4 329 12.7
2008-07-23 07:30:49 51°18.476 2°48.043 333.9 12.4 330 12.9
2008-07-23 07:30:53 51°18.488 2°48.032 333.9 12.5 329 13
2008-07-23 07:30:59 51°18.506 2°48.015 333.9 12.5 330 13.1
2008-07-23 07:31:04 51°18.521 2°48.001 334.2 12.4 329 13.3
2008-07-23 07:31:09 51°18.536 2°47.987 333.8 12.4 329 13.4
2008-07-23 07:31:14 51°18.551 2°47.973 333.6 12.5 329 13.6
2008-07-23 07:31:19 51°18.565 2°47.959 333.6 12.4 329 13.8
2008-07-23 07:31:23 51°18.577 2°47.947 333.3 12.5 329 13.9
2008-07-23 07:31:28 51°18.592 2°47.933 333.4 12.4 329 13.9
2008-07-23 07:31:33 51°18.607 2°47.919 333.6 12.4 329 14
2008-07-23 07:31:39 51°18.624 2°47.902 333.4 12.4 329 14.2
2008-07-23 07:31:43 51°18.636 2°47.891 333.5 12.4 329 14.3
2008-07-23 07:31:47 51°18.648 2°47.88 333.8 12.4 329 14.5
2008-07-23 07:31:53 51°18.666 2°47.864 334 12.4 330 14.6
2008-07-23 07:31:59 51°18.684 2°47.847 334.3 12.3 329 14.7
2008-07-23 07:32:03 51°18.695 2°47.836 334.1 12.3 329 15
2008-07-23 07:32:08 51°18.71 2°47.822 334 12.3 329 15.1
2008-07-23 07:32:13 51°18.725 2°47.808 334.2 12.3 330 15.2
2008-07-23 07:32:19 51°18.742 2°47.791 334.2 12.3 330 15.4
2008-07-23 07:32:23 51°18.754 2°47.78 334.2 12.3 330 15.6
2008-07-23 07:32:28 51°18.769 2°47.766 334.1 12.3 329 15.6
2008-07-23 07:32:33 51°18.783 2°47.753 334 12.3 329 15.7
2008-07-23 07:32:39 51°18.801 2°47.736 333.9 12.3 329 15.9
2008-07-23 07:32:43 51°18.813 2°47.725 334.2 12.2 330 16.1
2008-07-23 07:32:49 51°18.83 2°47.709 334.1 12.2 330 16.5
2008-07-23 07:32:53 51°18.842 2°47.698 334.4 12.2 330 16.8
2008-07-23 07:32:59 51°18.86 2°47.681 334.2 12.2 330 17.2
2008-07-23 07:33:03 51°18.871 2°47.67 333.8 12.3 329 17.5
2008-07-23 07:33:08 51°18.886 2°47.657 334.2 12.3 331 17.8
2008-07-23 07:33:13 51°18.901 2°47.643 334.9 12.3 330 17.9
2008-07-23 07:33:18 51°18.916 2°47.629 335.1 12.3 330 18.1
2008-07-23 07:33:23 51°18.931 2°47.616 334.9 12.4 330 18.2
2008-07-23 07:33:29 51°18.949 2°47.599 334.3 12.4 329 18
2008-07-23 07:33:34 51°18.963 2°47.585 334.1 12.5 329 18
2008-07-23 07:33:39 51°18.978 2°47.572 334.1 12.4 331 18.1
2008-07-23 07:33:43 51°18.99 2°47.561 334.3 12.3 331 18.1
2008-07-23 07:33:48 51°19.006 2°47.55 337.7 12.3 336 18.5
2008-07-23 07:33:54 51°19.024 2°47.537 340.3 12.3 335 18.5
2008-07-23 07:33:59 51°19.04 2°47.528 342.2 12.1 340 18.7
2008-07-23 07:34:03 51°19.053 2°47.52 343.7 12.2 339 19
2008-07-23 07:34:08 51°19.069 2°47.511 345 12.2 341 19.3
2008-07-23 07:34:14 51°19.088 2°47.501 345.9 12.2 341 19.4
2008-07-23 07:34:19 51°19.104 2°47.492 346.8 12.3 342 19.4
2008-07-23 07:34:23 51°19.117 2°47.486 347.2 12.3 342 19.6
2008-07-23 07:34:28 51°19.134 2°47.477 347.3 12.3 342 19.7
2008-07-23 07:34:33 51°19.15 2°47.469 347.4 12.4 343 19.8
2008-07-23 07:34:39 51°19.17 2°47.459 347.6 12.4 342 19.9
2008-07-23 07:34:43 51°19.183 2°47.452 347.4 12.4 343 20.1
2008-07-23 07:34:48 51°19.199 2°47.444 347.4 12.4 342 20.1
2008-07-23 07:34:53 51°19.216 2°47.436 347.4 12.5 343 20.2
2008-07-23 07:34:59 51°19.236 2°47.426 348 12.4 343 20.2
2008-07-23 07:35:03 51°19.249 2°47.42 348.1 12.3 343 20.3
2008-07-23 07:35:09 51°19.268 2°47.41 347.7 12.4 343 20.4
2008-07-23 07:35:13 51°19.282 2°47.403 347 12.4 342 20.5
2008-07-23 07:35:19 51°19.301 2°47.393 346.6 12.5 342 20.7
2008-07-23 07:35:24 51°19.318 2°47.384 346.3 12.5 342 20.6
2008-07-23 07:35:29 51°19.334 2°47.375 346.2 12.5 342 20.7
2008-07-23 07:35:34 51°19.35 2°47.367 346.2 12.5 341 20.7
2008-07-23 07:35:39 51°19.367 2°47.358 345.7 12.4 341 20.7
2008-07-23 07:35:43 51°19.38 2°47.35 345.6 12.4 341 20.8
2008-07-23 07:35:48 51°19.397 2°47.342 346 12.5 342 20.9
2008-07-23 07:35:54 51°19.416 2°47.331 346.2 12.6 341 20.8
2008-07-23 07:35:59 51°19.433 2°47.323 346.1 12.5 342 20.8
2008-07-23 07:36:03 51°19.446 2°47.316 346 12.5 341 20.9
2008-07-23 07:36:09 51°19.466 2°47.304 344.9 12.5 340 21
2008-07-23 07:36:14 51°19.482 2°47.295 344.5 12.5 341 20.8
2008-07-23 07:36:19 51°19.498 2°47.284 343.3 12.6 338 21
2008-07-23 07:36:23 51°19.511 2°47.276 342.4 12.6 338 21.1
2008-07-23 07:36:29 51°19.53 2°47.263 341.8 12.6 337 20.9
2008-07-23 07:36:34 51°19.546 2°47.251 341 12.5 336 21
2008-07-23 07:36:39 51°19.562 2°47.24 340.5 12.6 335 21.1
2008-07-23 07:36:43 51°19.575 2°47.23 338.8 12.5 334 21
2008-07-23 07:36:48 51°19.59 2°47.218 337.7 12.6 334 21
2008-07-23 07:36:53 51°19.606 2°47.205 336.6 12.5 332 20.9
2008-07-23 07:36:59 51°19.624 2°47.189 335.2 12.5 331 21
2008-07-23 07:37:03 51°19.636 2°47.178 333.3 12.4 329 21
2008-07-23 07:37:08 51°19.65 2°47.163 330.8 12.3 327 21
2008-07-23 07:37:13 51°19.664 2°47.147 329.2 12.2 326 21
2008-07-23 07:37:19 51°19.68 2°47.128 327.6 12.3 324 21
2008-07-23 07:37:24 51°19.694 2°47.111 326.5 12.2 323 20.7
2008-07-23 07:37:28 51°19.704 2°47.098 325.3 12.2 322 20.8
2008-07-23 07:37:34 51°19.721 2°47.078 324.8 12.2 322 20.9
2008-07-23 07:37:39 51°19.734 2°47.061 324.3 12.2 321 20.5
2008-07-23 07:37:43 51°19.744 2°47.048 323.9 12.1 321 20.5
2008-07-23 07:37:48 51°19.757 2°47.031 323.7 12.2 321 20.5
2008-07-23 07:37:53 51°19.771 2°47.013 323.7 12.2 321 20.4
2008-07-23 07:37:59 51°19.786 2°46.993 323.6 12.2 321 20.2
2008-07-23 07:38:03 51°19.797 2°46.979 323.6 12.3 321 20.2
2008-07-23 07:38:09 51°19.812 2°46.958 323.3 12.2 320 20
2008-07-23 07:38:13 51°19.823 2°46.945 324 12.3 323 19.7
2008-07-23 07:38:19 51°19.839 2°46.925 324.8 12.3 322 19.5
2008-07-23 07:38:23 51°19.851 2°46.913 325.7 12.3 324 19.4
2008-07-23 07:38:28 51°19.864 2°46.896 326.2 12.3 323 19.3
2008-07-23 07:38:34 51°19.881 2°46.877 326.7 12.4 324 19.2
2008-07-23 07:38:39 51°19.895 2°46.861 327 12.4 324 18.8
2008-07-23 07:38:43 51°19.906 2°46.848 326.7 12.5 324 17.7
2008-07-23 07:38:48 51°19.92 2°46.831 326.6 12.4 323 18.1
2008-07-23 07:38:53 51°19.933 2°46.815 326.3 12.4 323 18.1
2008-07-23 07:38:59 51°19.95 2°46.795 326.3 12.5 323 18.1
2008-07-23 07:39:03 51°19.961 2°46.781 325.9 12.5 322 18.1
2008-07-23 07:39:08 51°19.974 2°46.764 325.4 12.5 322 18
2008-07-23 07:39:13 51°19.988 2°46.747 325.6 12.6 322 17.7
2008-07-23 07:39:19 51°20.005 2°46.728 325.8 12.5 323 17.6
2008-07-23 07:39:23 51°20.016 2°46.714 326.1 12.5 323 17.3
2008-07-23 07:39:29 51°20.032 2°46.694 326.4 12.5 324 16.1
2008-07-23 07:39:33 51°20.043 2°46.681 326.6 12.4 324 15.6
2008-07-23 07:39:39 51°20.06 2°46.661 326.4 12.5 323 16
2008-07-23 07:39:43 51°20.071 2°46.647 326 12.6 323 15.8
2008-07-23 07:39:48 51°20.085 2°46.63 326.2 12.6 323 14.3
2008-07-23 07:39:53 51°20.099 2°46.614 326.3 12.5 323 13.4
2008-07-23 07:39:58 51°20.113 2°46.596 326.2 12.5 322 14.5
2008-07-23 07:40:03 51°20.127 2°46.58 326.1 12.6 323 15.3
2008-07-23 07:40:09 51°20.143 2°46.56 326.4 12.6 323 15.7
2008-07-23 07:40:13 51°20.154 2°46.546 326.7 12.6 323 16
2008-07-23 07:40:19 51°20.171 2°46.526 325.9 12.6 322 16.1
2008-07-23 07:40:24 51°20.185 2°46.508 325.1 12.6 322 15.8
2008-07-23 07:40:28 51°20.196 2°46.494 324.4 12.6 321 15.2
2008-07-23 07:40:34 51°20.212 2°46.473 324.3 12.6 321 14.3
2008-07-23 07:40:39 51°20.226 2°46.456 324.7 12.6 322 13.5
2008-07-23 07:40:43 51°20.237 2°46.442 325.1 12.6 322 11.7
2008-07-23 07:40:49 51°20.253 2°46.422 325.8 12.7 322 13
2008-07-23 07:40:53 51°20.265 2°46.408 326.5 12.7 324 14.2
2008-07-23 07:40:59 51°20.282 2°46.389 327.1 12.7 324 15
2008-07-23 07:41:03 51°20.293 2°46.376 327.5 12.6 324 15.9
2008-07-23 07:41:08 51°20.307 2°46.359 327 12.6 323 16.5
2008-07-23 07:41:13 51°20.322 2°46.342 326.4 12.6 323 16.9
2008-07-23 07:41:19 51°20.338 2°46.322 326.3 12.6 323 17.4
2008-07-23 07:41:23 51°20.349 2°46.308 326.1 12.6 322 17.7
2008-07-23 07:41:28 51°20.363 2°46.29 325.1 12.6 321 17.9
2008-07-23 07:41:33 51°20.377 2°46.273 324.8 12.5 321 18.4
2008-07-23 07:41:39 51°20.393 2°46.253 325.3 12.5 322 18.8
2008-07-23 07:41:43 51°20.404 2°46.239 326.3 12.5 323 19.1
2008-07-23 07:41:49 51°20.421 2°46.22 327.2 12.5 324 19.5
2008-07-23 07:41:53 51°20.433 2°46.207 327.8 12.5 324 19.7
2008-07-23 07:41:59 51°20.45 2°46.188 328.5 12.6 325 19.9
2008-07-23 07:42:03 51°20.461 2°46.175 328.6 12.6 325 20.1
2008-07-23 07:42:08 51°20.475 2°46.16 328.8 12.5 326 19.9
2008-07-23 07:42:13 51°20.49 2°46.144 329.5 12.6 326 20.5
2008-07-23 07:42:18 51°20.505 2°46.129 330.4 12.6 327 20.4
2008-07-23 07:42:23 51°20.519 2°46.114 330.9 12.6 327 20.3
2008-07-23 07:42:29 51°20.537 2°46.096 331.1 12.6 327 20.4
2008-07-23 07:42:34 51°20.552 2°46.081 331.5 12.7 328 20.4
2008-07-23 07:42:39 51°20.567 2°46.066 331.6 12.7 328 21
2008-07-23 07:42:43 51°20.579 2°46.055 331.6 12.6 328 20.6
2008-07-23 07:42:49 51°20.597 2°46.037 332 12.5 329 20.7
2008-07-23 07:42:53 51°20.609 2°46.026 332.9 12.6 330 21.4
2008-07-23 07:42:59 51°20.627 2°46.009 333 12.6 329 21.9
2008-07-23 07:43:03 51°20.639 2°45.998 333.1 12.6 330 22
2008-07-23 07:43:09 51°20.657 2°45.981 333.8 12.7 330 22
2008-07-23 07:43:14 51°20.672 2°45.967 334.2 12.7 330 22.3
2008-07-23 07:43:19 51°20.687 2°45.953 334.2 12.6 330 22.9
2008-07-23 07:43:23 51°20.7 2°45.942 334.3 12.6 330 23.3
2008-07-23 07:43:28 51°20.715 2°45.929 334.5 12.6 331 23.6
2008-07-23 07:43:34 51°20.733 2°45.912 334.4 12.7 330 24
2008-07-23 07:43:39 51°20.748 2°45.898 334 12.7 330 24.1
2008-07-23 07:43:43 51°20.76 2°45.887 333.8 12.6 330 24.3
2008-07-23 07:43:49 51°20.779 2°45.87 333.8 12.7 330 24.6
2008-07-23 07:43:53 51°20.791 2°45.858 333.8 12.7 330 24.5
2008-07-23 07:43:59 51°20.809 2°45.841 333.8 12.7 330 24.9
2008-07-23 07:44:03 51°20.822 2°45.83 333.9 12.8 330 24.7
2008-07-23 07:44:08 51°20.837 2°45.816 333.9 12.8 330 24.3
2008-07-23 07:44:13 51°20.852 2°45.802 333.8 12.7 330 23
2008-07-23 07:44:18 51°20.868 2°45.788 333.8 12.8 330 23
2008-07-23 07:44:23 51°20.883 2°45.774 333.9 12.8 330 22.7
2008-07-23 07:44:29 51°20.901 2°45.757 333.3 12.7 329 22.7
2008-07-23 07:44:34 51°20.916 2°45.742 332.3 12.6 328 23.1
2008-07-23 07:44:39 51°20.93 2°45.727 331.8 12.7 328 23.6
2008-07-23 07:44:43 51°20.942 2°45.714 331.5 12.7 328 23.7
2008-07-23 07:44:49 51°20.96 2°45.696 331.5 12.7 328 24.2
2008-07-23 07:44:53 51°20.972 2°45.684 331.1 12.7 327 24.7
2008-07-23 07:44:59 51°20.99 2°45.666 331.1 12.6 328 25
2008-07-23 07:45:03 51°21.001 2°45.654 330.8 12.6 327 25.2
2008-07-23 07:45:09 51°21.019 2°45.636 331 12.7 328 25.4
2008-07-23 07:45:14 51°21.034 2°45.621 331.6 12.7 328 25.5
2008-07-23 07:45:19 51°21.049 2°45.606 331.4 12.7 328 25.5
2008-07-23 07:45:23 51°21.061 2°45.594 331.3 12.7 327 25.5
2008-07-23 07:45:28 51°21.076 2°45.579 331.3 12.7 328 25.5
2008-07-23 07:45:34 51°21.094 2°45.561 331.5 12.7 328 25.4
2008-07-23 07:45:39 51°21.109 2°45.546 331.1 12.7 328 25.4
2008-07-23 07:45:43 51°21.12 2°45.534 331.2 12.6 327 25.4
2008-07-23 07:45:49 51°21.138 2°45.516 331 12.7 328 25.5
2008-07-23 07:45:53 51°21.15 2°45.505 331 12.6 329 25.4
2008-07-23 07:45:59 51°21.168 2°45.487 330.8 12.5 328 25.3
2008-07-23 07:46:03 51°21.18 2°45.475 331.2 12.5 328 25.3
2008-07-23 07:46:08 51°21.195 2°45.46 331.6 12.4 328 25.1
2008-07-23 07:46:13 51°21.209 2°45.446 331.9 12.4 330 25.2
2008-07-23 07:46:19 51°21.227 2°45.429 333 12.4 329 25.3
2008-07-23 07:46:23 51°21.239 2°45.418 333.2 12.4 329 25.1
2008-07-23 07:46:28 51°21.254 2°45.404 332.8 12.4 329 25
2008-07-23 07:46:33 51°21.269 2°45.391 333.1 12.3 331 25.2
2008-07-23 07:46:39 51°21.286 2°45.374 333.7 12.4 330 25
2008-07-23 07:46:44 51°21.301 2°45.361 334 12.3 331 25.2
2008-07-23 07:46:49 51°21.316 2°45.347 334.2 12.4 330 24.9
2008-07-23 07:46:53 51°21.328 2°45.337 334.3 12.3 331 24.8
2008-07-23 07:46:59 51°21.346 2°45.32 334.1 12.3 330 24.9
2008-07-23 07:47:03 51°21.358 2°45.31 334.1 12.4 331 24.7
2008-07-23 07:47:08 51°21.373 2°45.296 334.1 12.4 330 24.6
2008-07-23 07:47:14 51°21.392 2°45.28 334 12.5 330 24.6
2008-07-23 07:47:19 51°21.407 2°45.266 333.9 12.5 330 24.3
2008-07-23 07:47:23 51°21.419 2°45.255 333.8 12.4 331 24.2
2008-07-23 07:47:29 51°21.437 2°45.239 333.8 12.5 331 24.1
2008-07-23 07:47:34 51°21.452 2°45.225 333.6 12.5 330 24
2008-07-23 07:47:39 51°21.467 2°45.212 333.6 12.5 331 23.8
2008-07-23 07:47:43 51°21.479 2°45.201 333.5 12.5 330 23.3
2008-07-23 07:47:48 51°21.494 2°45.187 333.5 12.4 330 23.3
2008-07-23 07:47:54 51°21.512 2°45.171 333.4 12.4 330 23
2008-07-23 07:47:59 51°21.527 2°45.157 333.1 12.5 330 23.2
2008-07-23 07:48:03 51°21.539 2°45.146 333.2 12.5 331 22.9
2008-07-23 07:48:08 51°21.554 2°45.132 333.4 12.5 330 22.6
2008-07-23 07:48:14 51°21.572 2°45.115 333 12.5 330 22.5
2008-07-23 07:48:19 51°21.587 2°45.102 333.1 12.6 330 22.2
2008-07-23 07:48:23 51°21.599 2°45.091 333 12.5 330 22.2
2008-07-23 07:48:28 51°21.614 2°45.077 333.3 12.5 330 22.2
2008-07-23 07:48:33 51°21.629 2°45.063 333.2 12.5 330 22.2
2008-07-23 07:48:39 51°21.648 2°45.047 333.1 12.6 330 22
2008-07-23 07:48:43 51°21.66 2°45.036 333 12.5 331 21.7
2008-07-23 07:48:49 51°21.678 2°45.02 333.1 12.4 331 21.6
2008-07-23 07:48:53 51°21.69 2°45.009 333.4 12.4 331 21.8
2008-07-23 07:48:59 51°21.708 2°44.992 333.2 12.5 330 21.8
2008-07-23 07:49:04 51°21.723 2°44.978 333 12.5 330 21.8
2008-07-23 07:49:09 51°21.738 2°44.964 332.6 12.5 330 21.7
2008-07-23 07:49:14 51°21.753 2°44.95 331.7 12.5 330 21.8
2008-07-23 07:49:19 51°21.767 2°44.935 331 12.5 328 21.6
2008-07-23 07:49:23 51°21.779 2°44.923 330.4 12.5 329 21.9
2008-07-23 07:49:28 51°21.794 2°44.909 330.2 12.5 328 21.7
2008-07-23 07:49:34 51°21.812 2°44.891 330 12.4 328 21.6
2008-07-23 07:49:39 51°21.826 2°44.876 329.8 12.5 327 21.3
2008-07-23 07:49:43 51°21.838 2°44.864 329.9 12.5 328 21.2
2008-07-23 07:49:49 51°21.856 2°44.847 330.1 12.5 328 20.3
2008-07-23 07:49:53 51°21.868 2°44.835 330.4 12.5 329 19.5
2008-07-23 07:49:59 51°21.885 2°44.818 330.9 12.5 329 20.6
2008-07-23 07:50:03 51°21.897 2°44.807 331.6 12.4 330 21.5
2008-07-23 07:50:08 51°21.912 2°44.793 331.8 12.4 330 22
2008-07-23 07:50:14 51°21.93 2°44.777 332.8 12.5 330 22.3
2008-07-23 07:50:19 51°21.945 2°44.764 333 12.5 332 21.8
2008-07-23 07:50:23 51°21.957 2°44.753 333.6 12.5 331 20.8
2008-07-23 07:50:28 51°21.972 2°44.74 333.7 12.5 331 20.8
2008-07-23 07:50:33 51°21.987 2°44.726 333.4 12.5 331 21.5
2008-07-23 07:50:39 51°22.006 2°44.71 333.8 12.5 331 21.8
2008-07-23 07:50:43 51°22.018 2°44.7 333.6 12.5 331 22
2008-07-23 07:50:48 51°22.033 2°44.686 333.7 12.5 331 22.2
2008-07-23 07:50:53 51°22.048 2°44.673 333.4 12.5 331 22.1
2008-07-23 07:50:59 51°22.066 2°44.657 333.4 12.5 331 22.6
2008-07-23 07:51:04 51°22.081 2°44.643 333.2 12.5 330 22.3
2008-07-23 07:51:09 51°22.096 2°44.63 333 12.5 331 21.1
2008-07-23 07:51:13 51°22.108 2°44.619 333.1 12.4 330 21.7
2008-07-23 07:51:19 51°22.127 2°44.603 333 12.4 331 22.3
2008-07-23 07:51:23 51°22.139 2°44.592 332.9 12.4 330 23.1
2008-07-23 07:51:28 51°22.154 2°44.579 333.1 12.5 332 22.8
2008-07-23 07:51:34 51°22.172 2°44.563 333.1 12.5 331 22.3
2008-07-23 07:51:39 51°22.187 2°44.549 333.2 12.4 331 22.7
2008-07-23 07:51:43 51°22.199 2°44.538 333.1 12.5 331 23.4
2008-07-23 07:51:49 51°22.217 2°44.522 333.1 12.5 330 23.8
2008-07-23 07:51:54 51°22.232 2°44.508 332.7 12.5 329 23.9
2008-07-23 07:51:59 51°22.247 2°44.494 332.6 12.5 330 23.9
2008-07-23 07:52:03 51°22.259 2°44.483 332.7 12.5 330 23.8
2008-07-23 07:52:09 51°22.277 2°44.467 333.2 12.5 332 23.9
2008-07-23 07:52:14 51°22.293 2°44.453 333.5 12.5 330 24.3
2008-07-23 07:52:19 51°22.308 2°44.44 333.5 12.6 332 24.4
2008-07-23 07:52:23 51°22.32 2°44.429 333.5 12.5 330 24.3
2008-07-23 07:52:28 51°22.335 2°44.415 333 12.5 331 24.9
2008-07-23 07:52:34 51°22.353 2°44.399 333.2 12.5 331 24.4
2008-07-23 07:52:39 51°22.368 2°44.385 332.9 12.6 331 24.3
2008-07-23 07:52:43 51°22.38 2°44.374 332.4 12.5 331 24.6
2008-07-23 07:52:47 51°22.392 2°44.363 332.5 12.5 331 25.2
2008-07-23 07:52:54 51°22.414 2°44.344 332.6 12.4 330 25.2
2008-07-23 07:52:59 51°22.429 2°44.331 332.5 12.4 330 25.1
2008-07-23 07:53:03 51°22.44 2°44.319 332.2 12.5 329 25.4
2008-07-23 07:53:07 51°22.452 2°44.308 331.7 12.5 329 25.3
2008-07-23 07:53:14 51°22.473 2°44.288 330.7 12.5 327 25.7
2008-07-23 07:53:19 51°22.488 2°44.273 330.1 12.4 329 25.3
2008-07-23 07:53:24 51°22.503 2°44.259 330.3 12.4 329 25.4
2008-07-23 07:53:29 51°22.518 2°44.245 330.6 12.5 329 25.6
2008-07-23 07:53:34 51°22.532 2°44.231 331.6 12.5 330 25.5
2008-07-23 07:53:39 51°22.547 2°44.217 331.9 12.4 329 25.7
2008-07-23 07:53:44 51°22.562 2°44.203 331.7 12.5 330 25.8
2008-07-23 07:53:49 51°22.577 2°44.19 332.1 12.5 330 25.7
2008-07-23 07:53:54 51°22.592 2°44.176 332.1 12.5 330 25.8
2008-07-23 07:53:59 51°22.607 2°44.162 332.3 12.4 330 25.9
2008-07-23 07:54:03 51°22.619 2°44.151 332.7 12.5 331 25.8
2008-07-23 07:54:09 51°22.637 2°44.135 332.5 12.5 330 25.8
2008-07-23 07:54:14 51°22.652 2°44.121 332.7 12.5 330 25.3
2008-07-23 07:54:19 51°22.667 2°44.107 332.4 12.4 330 25.4
2008-07-23 07:54:23 51°22.679 2°44.096 332.5 12.4 330 25.8
2008-07-23 07:54:27 51°22.691 2°44.085 332.8 12.4 331 25.7
2008-07-23 07:54:34 51°22.712 2°44.066 332.9 12.5 330 25.8
2008-07-23 07:54:39 51°22.727 2°44.052 332.5 12.4 330 25.4
2008-07-23 07:54:43 51°22.739 2°44.041 332.4 12.5 329 25.6
2008-07-23 07:54:47 51°22.751 2°44.03 332.8 12.4 330 25.9
2008-07-23 07:54:54 51°22.772 2°44.01 333 12.5 329 25.5
2008-07-23 07:54:59 51°22.786 2°43.997 332.7 12.4 330 25.7
2008-07-23 07:55:03 51°22.798 2°43.985 332.4 12.4 328 26.2
2008-07-23 07:55:07 51°22.81 2°43.974 332.3 12.5 330 25.6
2008-07-23 07:55:14 51°22.83 2°43.954 332.6 12.5 328 25.9
2008-07-23 07:55:19 51°22.845 2°43.94 332.4 12.4 330 25.5
2008-07-23 07:55:24 51°22.86 2°43.926 332.4 12.4 329 25.7
2008-07-23 07:55:27 51°22.869 2°43.917 332.7 12.4 329 25.8
2008-07-23 07:55:34 51°22.89 2°43.898 332.8 12.4 329 25.6
2008-07-23 07:55:39 51°22.905 2°43.883 332.8 12.4 329 25.2
2008-07-23 07:55:44 51°22.919 2°43.87 332.9 12.4 330 23.8
2008-07-23 07:55:49 51°22.934 2°43.855 333 12.4 329 24.4
2008-07-23 07:55:54 51°22.949 2°43.841 333.1 12.4 329 25.1
2008-07-23 07:55:59 51°22.964 2°43.827 333 12.4 329 24.3
2008-07-23 07:56:03 51°22.975 2°43.815 332.5 12.4 328 23.6
2008-07-23 07:56:09 51°22.993 2°43.798 332.3 12.4 328 23.9
2008-07-23 07:56:14 51°23.007 2°43.783 332.2 12.4 328 24.4
2008-07-23 07:56:19 51°23.022 2°43.769 332.3 12.5 328 23.4
2008-07-23 07:56:23 51°23.034 2°43.757 332.3 12.5 328 23.5
2008-07-23 07:56:29 51°23.051 2°43.739 332.5 12.4 328 25.1
2008-07-23 07:56:34 51°23.066 2°43.725 332.5 12.4 328 25.2
2008-07-23 07:56:39 51°23.081 2°43.71 332.6 12.5 328 25.8
2008-07-23 07:56:43 51°23.092 2°43.699 332.8 12.5 329 25.6
2008-07-23 07:56:49 51°23.11 2°43.681 333.1 12.5 328 24.2
2008-07-23 07:56:54 51°23.124 2°43.666 332.3 12.5 327 23.9
2008-07-23 07:56:59 51°23.139 2°43.651 331.3 12.5 326 24.3
2008-07-23 07:57:03 51°23.15 2°43.638 330.9 12.5 326 25
2008-07-23 07:57:07 51°23.162 2°43.626 330.2 12.4 326 25.3
2008-07-23 07:57:14 51°23.181 2°43.604 330.1 12.4 325 25.4
2008-07-23 07:57:19 51°23.196 2°43.587 329.6 12.5 325 25.5
2008-07-23 07:57:23 51°23.207 2°43.575 329.6 12.5 324 25.4
2008-07-23 07:57:27 51°23.218 2°43.562 330 12.5 325 25.6
2008-07-23 07:57:34 51°23.237 2°43.537 327.5 12.6 320 25.5
2008-07-23 07:57:39 51°23.25 2°43.52 324.9 12.5 320 25.6
2008-07-23 07:57:44 51°23.263 2°43.501 323.8 12.5 319 25.5
2008-07-23 07:57:47 51°23.271 2°43.489 322 12.6 317 25.8
2008-07-23 07:57:54 51°23.289 2°43.463 321.4 12.6 317 25.9
2008-07-23 07:57:59 51°23.301 2°43.443 320.7 12.7 315 26.1
2008-07-23 07:58:04 51°23.314 2°43.424 320.5 12.7 316 26.7
2008-07-23 07:58:09 51°23.327 2°43.404 320.5 12.7 317 26.8
2008-07-23 07:58:14 51°23.34 2°43.385 320.1 12.7 317 26.8
2008-07-23 07:58:19 51°23.352 2°43.366 320.7 12.7 317 26.3
2008-07-23 07:58:24 51°23.365 2°43.346 320.6 12.6 316 25.3
2008-07-23 07:58:29 51°23.378 2°43.327 320.5 12.7 317 25.4
2008-07-23 07:58:34 51°23.391 2°43.308 320.5 12.7 316 25.2
2008-07-23 07:58:39 51°23.403 2°43.288 320.5 12.7 317 25.4
2008-07-23 07:58:43 51°23.414 2°43.273 320.7 12.7 317 25.4
2008-07-23 07:58:49 51°23.43 2°43.25 321.2 12.8 318 25.1
2008-07-23 07:58:54 51°23.442 2°43.231 321.9 12.7 318 25.4
2008-07-23 07:58:59 51°23.456 2°43.213 321.8 12.7 318 25.3
2008-07-23 07:59:03 51°23.466 2°43.198 322.2 12.7 319 25.2
2008-07-23 07:59:07 51°23.477 2°43.182 322.1 12.7 318 25.5
2008-07-23 07:59:14 51°23.495 2°43.157 322.2 12.6 320 25.5
2008-07-23 07:59:19 51°23.508 2°43.137 322.3 12.7 318 25.5
2008-07-23 07:59:23 51°23.519 2°43.123 322.4 12.6 319 25.6
2008-07-23 07:59:27 51°23.529 2°43.108 322.3 12.6 318 25.5
2008-07-23 07:59:34 51°23.548 2°43.082 322.2 12.7 318 26
2008-07-23 07:59:39 51°23.561 2°43.064 322.3 12.6 319 26
2008-07-23 07:59:43 51°23.571 2°43.048 322.5 12.7 318 26.6
2008-07-23 07:59:47 51°23.582 2°43.034 322.3 12.7 319 26.6
2008-07-23 07:59:54 51°23.6 2°43.008 322.5 12.7 318 26.9
2008-07-23 07:59:59 51°23.613 2°42.989 322.3 12.6 319 27.2
2008-07-23 08:00:04 51°23.626 2°42.97 322.2 12.5 318 27.6
2008-07-23 08:00:09 51°23.639 2°42.952 321.8 12.6 318 27.6
2008-07-23 08:00:14 51°23.652 2°42.933 322.2 12.6 319 27.6
2008-07-23 08:00:19 51°23.666 2°42.915 322.2 12.6 320 27
2008-07-23 08:00:24 51°23.679 2°42.896 322.4 12.7 318 26.6
2008-07-23 08:00:29 51°23.692 2°42.878 322.2 12.7 318 24.5
2008-07-23 08:00:34 51°23.705 2°42.859 322.2 12.6 318 23.3
2008-07-23 08:00:39 51°23.718 2°42.84 321.7 12.7 318 23.7
2008-07-23 08:00:44 51°23.731 2°42.821 322.2 12.6 318 24.2
2008-07-23 08:00:49 51°23.744 2°42.802 322.2 12.7 317 24.4
2008-07-23 08:00:54 51°23.757 2°42.784 321.7 12.6 319 24.4
2008-07-23 08:00:59 51°23.77 2°42.765 322.2 12.7 318 24.5
2008-07-23 08:01:03 51°23.78 2°42.751 322.2 12.6 319 24.7
2008-07-23 08:01:09 51°23.796 2°42.728 322.7 12.6 318 25.1
2008-07-23 08:01:14 51°23.809 2°42.71 322.2 12.6 319 24.9
2008-07-23 08:01:19 51°23.822 2°42.691 321.6 12.6 317 23.8
2008-07-23 08:01:23 51°23.832 2°42.676 321.6 12.6 319 22.8
2008-07-23 08:01:29 51°23.848 2°42.654 321.8 12.6 318 23
2008-07-23 08:01:34 51°23.861 2°42.634 320.7 12.6 317 23.1
2008-07-23 08:01:39 51°23.873 2°42.615 320.3 12.6 317 23.1
2008-07-23 08:01:43 51°23.884 2°42.6 320.4 12.5 317 23.1
2008-07-23 08:01:47 51°23.894 2°42.585 320.8 12.5 318 23.6
2008-07-23 08:01:54 51°23.912 2°42.559 321.4 12.6 318 23.9
2008-07-23 08:01:59 51°23.925 2°42.541 322.2 12.5 320 23.9
2008-07-23 08:02:04 51°23.939 2°42.522 323.3 12.5 319 24.1
2008-07-23 08:02:07 51°23.947 2°42.512 323.6 12.5 321 24.2
2008-07-23 08:02:14 51°23.966 2°42.487 324.2 12.6 320 23.9
2008-07-23 08:02:19 51°23.979 2°42.469 324.2 12.6 321 23.9
2008-07-23 08:02:24 51°23.992 2°42.451 323.8 12.6 319 23.4
2008-07-23 08:02:29 51°24.006 2°42.433 323 12.6 319 23.6
2008-07-23 08:02:34 51°24.019 2°42.414 322.8 12.6 319 23.1
2008-07-23 08:02:39 51°24.032 2°42.396 322.6 12.6 319 23.6
2008-07-23 08:02:44 51°24.045 2°42.378 323.5 12.5 320 23.5
2008-07-23 08:02:49 51°24.059 2°42.36 323.6 12.6 319 23.3
2008-07-23 08:02:54 51°24.072 2°42.343 324.1 12.5 322 23.4
2008-07-23 08:02:59 51°24.086 2°42.325 324.6 12.6 320 23.8
2008-07-23 08:03:04 51°24.1 2°42.308 324.9 12.6 322 24.1
2008-07-23 08:03:09 51°24.113 2°42.29 325.4 12.6 321 23.9
2008-07-23 08:03:14 51°24.127 2°42.273 325.1 12.6 321 24.4
2008-07-23 08:03:19 51°24.14 2°42.255 324.2 12.6 320 24.5
2008-07-23 08:03:23 51°24.151 2°42.241 323.6 12.6 321 24.9
2008-07-23 08:03:29 51°24.168 2°42.22 324.7 12.6 322 25.6
2008-07-23 08:03:34 51°24.181 2°42.203 325.4 12.6 322 26
2008-07-23 08:03:39 51°24.195 2°42.186 325.9 12.5 323 26.6
2008-07-23 08:03:43 51°24.207 2°42.173 327 12.6 324 26.4
2008-07-23 08:03:47 51°24.218 2°42.159 326.4 12.7 322 26.3
2008-07-23 08:03:54 51°24.237 2°42.137 327.2 12.6 325 25.4
2008-07-23 08:03:59 51°24.252 2°42.12 327 12.7 323 24.1
2008-07-23 08:04:03 51°24.263 2°42.107 327.4 12.6 325 21.9
2008-07-23 08:04:08 51°24.277 2°42.09 326.9 12.6 322 22
2008-07-23 08:04:13 51°24.291 2°42.073 327.4 12.6 324 22.4
2008-07-23 08:04:19 51°24.308 2°42.053 327.1 12.6 323 23.2
2008-07-23 08:04:23 51°24.319 2°42.04 326.9 12.6 324 24.2
2008-07-23 08:04:29 51°24.336 2°42.02 327.2 12.5 323 24.9
2008-07-23 08:04:33 51°24.347 2°42.008 327.4 12.5 325 25.8
2008-07-23 08:04:39 51°24.364 2°41.987 326.9 12.5 323 25.6
2008-07-23 08:04:44 51°24.378 2°41.971 326.8 12.6 325 25.6
2008-07-23 08:04:48 51°24.389 2°41.957 327.2 12.6 323 25.2
2008-07-23 08:04:54 51°24.406 2°41.938 326.1 12.5 324 24.9
2008-07-23 08:04:59 51°24.42 2°41.921 326.8 12.6 323 24.9
2008-07-23 08:05:03 51°24.431 2°41.908 326.5 12.6 323 25.5
2008-07-23 08:05:09 51°24.448 2°41.888 326.8 12.5 323 25.8
2008-07-23 08:05:14 51°24.461 2°41.87 325.9 12.5 321 26.5
2008-07-23 08:05:19 51°24.475 2°41.853 325.3 12.5 323 26.5
2008-07-23 08:05:23 51°24.486 2°41.839 324.8 12.5 321 26.2
2008-07-23 08:05:29 51°24.502 2°41.818 324.3 12.5 321 26.4
2008-07-23 08:05:34 51°24.516 2°41.801 324.7 12.5 321 26.3
2008-07-23 08:05:39 51°24.529 2°41.783 324.5 12.6 320 26.5
2008-07-23 08:05:43 51°24.54 2°41.77 324.3 12.5 322 26.4
2008-07-23 08:05:47 51°24.551 2°41.756 324.8 12.5 321 26.1
2008-07-23 08:05:54 51°24.57 2°41.732 324.5 12.5 322 25.7
2008-07-23 08:05:59 51°24.584 2°41.715 324.7 12.5 322 25.4
2008-07-23 08:06:03 51°24.595 2°41.701 325.1 12.5 323 24.7
2008-07-23 08:06:07 51°24.606 2°41.688 326.7 12.6 323 24.3
2008-07-23 08:06:14 51°24.625 2°41.665 326.5 12.7 323 23.8
2008-07-23 08:06:19 51°24.639 2°41.649 327 12.5 325 24.2
2008-07-23 08:06:23 51°24.651 2°41.636 327.1 12.4 324 23.7
2008-07-23 08:06:27 51°24.662 2°41.624 327.5 12.4 325 20.8
2008-07-23 08:06:34 51°24.681 2°41.6 327.2 12.4 322 22
2008-07-23 08:06:39 51°24.695 2°41.583 326.5 12.5 323 23.5
2008-07-23 08:06:44 51°24.709 2°41.566 326.8 12.5 323 23.2
2008-07-23 08:06:47 51°24.717 2°41.557 326.5 12.5 323 24.3
2008-07-23 08:06:54 51°24.736 2°41.532 325.9 12.5 322 25.2
2008-07-23 08:06:59 51°24.749 2°41.515 325.5 12.5 322 24.5
2008-07-23 08:07:03 51°24.761 2°41.502 325.8 12.5 323 21.9
2008-07-23 08:07:09 51°24.777 2°41.482 326.2 12.5 322 20
2008-07-23 08:07:14 51°24.791 2°41.465 326.1 12.5 323 21.5
2008-07-23 08:07:19 51°24.805 2°41.449 327.2 12.4 324 22.6
2008-07-23 08:07:24 51°24.819 2°41.432 326.5 12.4 323 23.6
2008-07-23 08:07:29 51°24.833 2°41.417 327.5 12.4 325 24.2
2008-07-23 08:07:34 51°24.846 2°41.4 327.5 12.5 323 25
2008-07-23 08:07:39 51°24.861 2°41.383 327.2 12.5 324 25.5
2008-07-23 08:07:43 51°24.872 2°41.37 327.4 12.5 324 25
2008-07-23 08:07:49 51°24.889 2°41.35 327.2 12.5 324 24.7
2008-07-23 08:07:54 51°24.903 2°41.334 327.6 12.5 324 23.8
2008-07-23 08:07:59 51°24.916 2°41.317 326.2 12.6 321 24.2
2008-07-23 08:08:03 51°24.927 2°41.304 325.3 12.4 323 24.8
2008-07-23 08:08:09 51°24.943 2°41.283 325.3 12.4 321 25.3
2008-07-23 08:08:14 51°24.957 2°41.266 324.6 12.4 321 25
2008-07-23 08:08:19 51°24.97 2°41.249 324.3 12.4 322 24.9
2008-07-23 08:08:23 51°24.981 2°41.235 324.6 12.3 322 25.1
2008-07-23 08:08:27 51°24.993 2°41.223 326.4 12.3 325 24.4
2008-07-23 08:08:34 51°25.012 2°41.2 327.5 12.4 324 23.8
2008-07-23 08:08:39 51°25.026 2°41.185 328.7 12.4 327 24.6
2008-07-23 08:08:43 51°25.038 2°41.173 329.3 12.4 326 25.1
2008-07-23 08:08:47 51°25.049 2°41.161 330.1 12.4 328 25
2008-07-23 08:08:54 51°25.07 2°41.14 330.8 12.4 326 24.6
2008-07-23 08:08:59 51°25.084 2°41.126 331.2 12.3 329 25.2